Time;durP1;ratioP1;P1;durP2;ratioP2;P2;SDS_P1;SDS_P2;PMS_P1;PMS_P2;Temp;Humidity;BMP_temperature;BMP_pressure;BME280_temperature;BME280_humidity;BME280_pressure;Samples;Min_cycle;Max_cycle;Signal;HPM_P1;HPM_P2
2022/01/22 00:01:46;;;;;;;;;;;;;;;4.10;97.08;103396.06;5072023;28;19999;-76
2022/01/22 00:04:11;;;;;;;;;;;;;;;4.11;97.98;103402.97;5049512;28;19927;-75
2022/01/22 00:06:37;;;;;;;;;;;;;;;4.09;97.80;103402.81;5048063;28;19920;-75
2022/01/22 00:09:04;;;;;;;;;;;;;;;4.12;97.25;103398.00;5060740;28;20305;-75
2022/01/22 00:11:35;;;;;;;;;;;;;;;4.13;97.56;103402.38;5052909;28;20442;-76
2022/01/22 00:16:44;;;;;;;;;;;;;;;4.14;97.64;103399.06;5058137;28;20017;-76
2022/01/22 00:19:10;;;;;;;;;;;;;;;4.15;98.14;103392.31;5035338;28;20290;-75
2022/01/22 00:21:35;;;;;;;;;;;;;;;4.18;97.43;103400.22;5064793;28;20351;-76
2022/01/22 00:24:02;;;;;;;;;;;;;;;4.17;97.40;103391.69;5056196;28;20365;-75
2022/01/22 00:26:27;;;;;;;;;;;;;;;4.23;96.91;103388.84;5069264;28;19924;-76
2022/01/22 00:28:53;;;;;;;;;;;;;;;4.22;97.12;103392.13;5058879;28;20640;-73
2022/01/22 00:31:18;;;;;;;;;;;;;;;4.20;97.60;103383.47;5053933;28;19916;-73
2022/01/22 00:33:43;;;;;;;;;;;;;;;4.22;97.34;103382.84;5056219;28;19990;-74
2022/01/22 00:36:08;;;;;;;;;;;;;;;4.23;97.20;103379.53;5065801;28;19946;-75
2022/01/22 00:38:34;;;;;;;;;;;;;;;4.22;97.21;103374.31;5068415;28;19920;-76
2022/01/22 00:40:59;;;;;;;;;;;;;;;4.21;97.43;103370.88;5052730;28;20289;-76
2022/01/22 00:43:25;;;;;;;;;;;;;;;4.28;96.86;103370.69;5071776;28;19924;-75
2022/01/22 00:45:50;;;;;;;;;;;;;;;4.26;96.74;103376.41;5057358;28;19928;-75
2022/01/22 00:48:16;;;;;;;;;;;;;;;4.22;96.92;103372.66;5071795;28;19973;-73
2022/01/22 00:50:41;;;;;;;;;;;;;;;4.24;97.03;103373.69;5048532;28;19963;-75
2022/01/22 00:53:06;;;;;;;;;;;;;;;4.23;97.12;103371.91;5036278;28;19966;-75
2022/01/22 00:55:32;;;;;;;;;;;;;;;4.24;97.11;103376.22;5070892;28;20363;-75
2022/01/22 00:57:57;;;;;;;;;;;;;;;4.23;97.03;103379.53;5070648;28;19985;-75
2022/01/22 01:00:22;;;;;;;;;;;;;;;4.27;97.03;103379.09;5054235;28;19917;-72
2022/01/22 01:02:48;;;;;;;;;;;;;;;4.22;97.17;103390.50;5072584;28;19920;-72
2022/01/22 01:05:13;;;;;;;;;;;;;;;4.26;97.08;103392.59;5067302;28;19920;-73
2022/01/22 01:07:39;;;;;;;;;;;;;;;4.22;96.92;103390.50;5068581;28;20041;-73
2022/01/22 01:10:06;;;;;;;;;;;;;;;4.24;97.08;103399.16;5071521;28;19920;-73
2022/01/22 01:12:31;;;;;;;;;;;;;;;4.23;96.90;103399.03;5068088;28;20020;-73
2022/01/22 01:15:18;;;;;;;;;;;;;;;4.23;96.85;103388.84;5036846;28;20387;-73
2022/01/22 01:34:17;;;;;;;;;;;;;;;4.16;98.62;103391.56;5045294;28;19928;-75
2022/01/22 01:36:43;;;;;;;;;;;;;;;4.16;97.90;103384.81;5048503;28;19991;-75
2022/01/22 01:39:11;;;;;;;;;;;;;;;4.15;98.18;103393.22;5069975;28;19920;-75
2022/01/22 01:41:50;;;;;;;;;;;;;;;4.12;98.70;103390.38;5067580;28;20270;-73
2022/01/22 01:44:15;;;;;;;;;;;;;;;4.14;98.88;103395.63;5068346;28;19932;-72
2022/01/22 01:46:44;;;;;;;;;;;;;;;4.11;98.97;103406.41;5069825;28;19928;-72
2022/01/22 01:49:10;;;;;;;;;;;;;;;4.11;99.60;103402.97;5071181;28;19921;-72
2022/01/22 01:51:36;;;;;;;;;;;;;;;4.12;99.03;103395.47;5054394;28;20005;-72
2022/01/22 01:54:26;;;;;;;;;;;;;;;4.09;99.01;103402.81;5073543;28;19922;-72
2022/01/22 01:59:37;;;;;;;;;;;;;;;4.04;99.33;103394.75;5071009;28;20300;-75
2022/01/22 02:02:03;;;;;;;;;;;;;;;3.98;100.00;103390.72;5068004;28;19916;-75
2022/01/22 02:04:28;;;;;;;;;;;;;;;3.96;99.81;103385.50;5043920;28;19921;-75
2022/01/22 02:06:55;;;;;;;;;;;;;;;3.94;100.00;103391.16;5066213;28;19928;-73
2022/01/22 02:09:20;;;;;;;;;;;;;;;3.91;100.00;103390.91;5048946;28;20435;-73
2022/01/22 02:11:46;;;;;;;;;;;;;;;3.93;100.00;103384.28;5049314;28;19920;-73
2022/01/22 02:25:09;;;;;;;;;;;;;;;3.91;100.00;103393.44;5071263;28;20412;-76
2022/01/22 02:27:34;;;;;;;;;;;;;;;3.90;100.00;103384.00;5064451;28;19936;-75
2022/01/22 02:30:00;;;;;;;;;;;;;;;3.92;100.00;103380.84;5052789;28;19925;-75
2022/01/22 02:35:25;;;;;;;;;;;;;;;3.93;100.00;103386.84;5049843;28;19978;-75
2022/01/22 02:37:58;;;;;;;;;;;;;;;3.93;100.00;103386.84;5071598;28;20157;-75
2022/01/22 02:40:27;;;;;;;;;;;;;;;3.95;100.00;103387.91;5069932;28;19963;-75
2022/01/22 02:42:53;;;;;;;;;;;;;;;3.96;100.00;103382.94;5049945;28;20404;-75
2022/01/22 02:45:22;;;;;;;;;;;;;;;3.97;100.00;103383.84;5070046;28;19923;-72
2022/01/22 02:47:47;;;;;;;;;;;;;;;4.00;100.00;103385.03;5052315;28;19921;-72
2022/01/22 02:50:13;;;;;;;;;;;;;;;3.99;100.00;103384.88;5066680;28;19921;-72
2022/01/22 02:52:39;;;;;;;;;;;;;;;4.03;100.00;103379.34;5066971;28;21164;-72
2022/01/22 02:55:06;;;;;;;;;;;;;;;4.02;100.00;103380.09;5053794;28;20597;-73
2022/01/22 02:57:32;;;;;;;;;;;;;;;4.01;100.00;103383.38;5063203;28;19923;-72
2022/01/22 02:59:59;;;;;;;;;;;;;;;4.02;100.00;103383.53;5049257;28;19928;-73
2022/01/22 03:02:25;;;;;;;;;;;;;;;4.05;100.00;103388.00;5067374;28;20348;-74
2022/01/22 03:04:50;;;;;;;;;;;;;;;4.08;100.00;103400.13;5047290;28;19962;-73
2022/01/22 03:07:15;;;;;;;;;;;;;;;4.10;100.00;103404.63;5049084;28;19978;-73
2022/01/22 03:09:43;;;;;;;;;;;;;;;4.08;100.00;103400.13;5067530;28;19928;-73
2022/01/22 03:17:45;;;;;;;;;;;;;;;4.16;100.00;103386.47;5063520;28;19928;-73
2022/01/22 03:20:23;;;;;;;;;;;;;;;4.15;100.00;103393.22;5050909;28;19928;-73
2022/01/22 03:28:01;;;;;;;;;;;;;;;4.10;100.00;103396.06;5052845;28;19982;-73
2022/01/22 03:30:26;;;;;;;;;;;;;;;4.12;100.00;103395.47;5066390;28;19956;-73
2022/01/22 03:32:54;;;;;;;;;;;;;;;4.10;100.00;103390.97;5066942;28;19920;-73
2022/01/22 03:37:51;;;;;;;;;;;;;;;4.11;100.00;103398.75;5072196;28;20023;-73
2022/01/22 03:40:17;;;;;;;;;;;;;;;4.10;100.00;103396.97;5071269;28;20011;-73
2022/01/22 03:42:43;;;;;;;;;;;;;;;4.08;100.00;103398.50;5059256;28;19934;-73
2022/01/22 03:45:09;;;;;;;;;;;;;;;4.10;100.00;103391.88;5072875;28;19924;-73
2022/01/22 03:47:35;;;;;;;;;;;;;;;4.10;100.00;103402.06;5069468;28;19924;-73
2022/01/22 03:50:00;;;;;;;;;;;;;;;4.08;100.00;103398.50;5038843;28;19966;-73
2022/01/22 03:52:26;;;;;;;;;;;;;;;4.09;100.00;103395.19;5070544;28;19982;-73
2022/01/22 03:54:51;;;;;;;;;;;;;;;4.10;100.00;103399.53;5059519;28;19932;-73
2022/01/22 03:57:16;;;;;;;;;;;;;;;4.13;100.00;103399.81;5057114;28;19924;-73
2022/01/22 03:59:43;;;;;;;;;;;;;;;4.11;100.00;103401.31;5054197;28;19971;-73
2022/01/22 04:04:56;;;;;;;;;;;;;;;4.11;100.00;103398.75;5055360;28;19986;-73
2022/01/22 04:10:07;;;;;;;;;;;;;;;4.12;100.00;103392.91;5066141;28;20016;-73
2022/01/22 04:12:45;;;;;;;;;;;;;;;4.13;100.00;103402.38;5058529;28;19916;-73
2022/01/22 04:15:13;;;;;;;;;;;;;;;4.12;100.00;103395.47;5057252;28;20383;-73
2022/01/22 04:25:42;;;;;;;;;;;;;;;4.12;100.00;103397.09;5071645;28;19954;-73
2022/01/22 04:28:07;;;;;;;;;;;;;;;4.11;100.00;103388.56;5071718;28;19967;-73
2022/01/22 04:30:32;;;;;;;;;;;;;;;4.11;100.00;103391.13;5055436;28;20013;-73
2022/01/22 04:33:00;;;;;;;;;;;;;;;4.11;100.00;103380.94;5071514;28;19927;-73
2022/01/22 04:35:26;;;;;;;;;;;;;;;4.12;100.00;103397.09;5053217;28;19924;-73
2022/01/22 04:37:51;;;;;;;;;;;;;;;4.11;100.00;103401.31;5072150;28;20388;-73
2022/01/22 04:40:17;;;;;;;;;;;;;;;4.11;100.00;103401.31;5071362;28;19928;-73
2022/01/22 04:42:43;;;;;;;;;;;;;;;4.10;100.00;103402.06;5054336;28;20380;-73
2022/01/22 04:45:28;;;;;;;;;;;;;;;4.13;100.00;103398.94;5071423;28;20340;-74
2022/01/22 04:55:54;;;;;;;;;;;;;;;4.15;100.00;103398.31;5027842;28;19924;-73
2022/01/22 04:58:19;;;;;;;;;;;;;;;4.17;100.00;103403.53;5072491;28;19927;-73
2022/01/22 05:00:45;;;;;;;;;;;;;;;4.17;100.00;103406.09;5071813;28;19916;-73
2022/01/22 05:03:10;;;;;;;;;;;;;;;4.18;100.00;103400.22;5074748;28;20370;-73
2022/01/22 05:05:36;;;;;;;;;;;;;;;4.19;100.00;103402.06;5071243;28;19920;-73
2022/01/22 05:08:01;;;;;;;;;;;;;;;4.17;100.00;103394.25;5071207;28;19942;-74
2022/01/22 05:10:26;;;;;;;;;;;;;;;4.19;100.00;103402.06;5048536;28;20013;-73
2022/01/22 05:12:53;;;;;;;;;;;;;;;4.18;100.00;103396.03;5066803;28;19921;-73
2022/01/22 05:15:19;;;;;;;;;;;;;;;4.21;100.00;103395.44;5067571;28;20410;-73
2022/01/22 05:17:45;;;;;;;;;;;;;;;4.20;100.00;103394.56;5051494;28;19963;-73
2022/01/22 05:20:18;;;;;;;;;;;;;;;4.21;100.00;103382.72;5077751;28;19928;-74
2022/01/22 05:25:50;;;;;;;;;;;;;;;4.24;100.00;103382.97;5018664;28;20385;-73
2022/01/22 05:38:22;;;;;;;;;;;;;;;4.27;100.00;103381.63;5069622;28;20019;-73
2022/01/22 05:40:47;;;;;;;;;;;;;;;4.28;100.00;103385.97;5054229;28;19998;-73
2022/01/22 05:43:12;;;;;;;;;;;;;;;4.30;100.00;103387.00;5070439;28;20434;-73
2022/01/22 05:45:37;;;;;;;;;;;;;;;4.31;100.00;103393.03;5056705;28;19932;-73
2022/01/22 05:48:03;;;;;;;;;;;;;;;4.33;100.00;103390.59;5067427;28;20003;-73
2022/01/22 05:50:35;;;;;;;;;;;;;;;4.35;100.00;103391.63;5054200;28;19932;-73
2022/01/22 05:53:14;;;;;;;;;;;;;;;4.36;100.00;103388.31;5051186;28;20823;-75
2022/01/22 06:00:49;;;;;;;;;;;;;;;4.41;100.00;103394.75;5052238;28;20276;-73
2022/01/22 06:03:14;;;;;;;;;;;;;;;4.42;100.00;103391.44;5053614;28;19923;-73
2022/01/22 06:05:40;;;;;;;;;;;;;;;4.42;100.00;103397.44;5079738;28;19935;-73
2022/01/22 06:08:05;;;;;;;;;;;;;;;4.43;100.00;103398.34;5074994;28;19950;-74
2022/01/22 06:10:33;;;;;;;;;;;;;;;4.42;100.00;103402.53;5035417;28;19945;-73
2022/01/22 06:13:11;;;;;;;;;;;;;;;4.45;100.00;103396.84;5034329;28;19920;-73
2022/01/22 06:15:37;;;;;;;;;;;;;;;4.46;100.00;103394.44;5063179;28;19935;-73
2022/01/22 06:18:02;;;;;;;;;;;;;;;4.46;100.00;103396.97;5049748;28;19928;-73
2022/01/22 06:20:28;;;;;;;;;;;;;;;4.48;100.00;103397.13;5050114;28;19921;-73
2022/01/22 06:22:53;;;;;;;;;;;;;;;4.49;100.00;103397.28;5072938;28;19928;-72
2022/01/22 06:25:18;;;;;;;;;;;;;;;4.48;100.00;103397.13;5067856;28;19939;-73
2022/01/22 06:27:43;;;;;;;;;;;;;;;4.48;100.00;103395.47;5051259;28;20386;-73
2022/01/22 06:30:09;;;;;;;;;;;;;;;4.48;100.00;103398.00;5066360;28;19928;-73
2022/01/22 06:32:34;;;;;;;;;;;;;;;4.47;100.00;103405.50;5050076;28;19956;-73
2022/01/22 06:34:59;;;;;;;;;;;;;;;4.49;100.00;103401.44;5048064;28;20366;-73
2022/01/22 06:37:25;;;;;;;;;;;;;;;4.49;100.00;103401.44;5072049;28;19934;-72
2022/01/22 06:42:31;;;;;;;;;;;;;;;4.49;100.00;103409.09;5055465;28;19920;-73
2022/01/22 06:44:57;;;;;;;;;;;;;;;4.50;100.00;103413.47;5069267;28;19927;-73
2022/01/22 06:47:23;;;;;;;;;;;;;;;4.51;100.00;103405.06;5066651;28;20331;-73
2022/01/22 06:49:48;;;;;;;;;;;;;;;4.52;100.00;103411.94;5052932;28;19974;-73
2022/01/22 06:52:14;;;;;;;;;;;;;;;4.54;100.00;103410.41;5052890;28;19927;-73
2022/01/22 06:54:41;;;;;;;;;;;;;;;4.54;100.00;103413.88;5066409;28;19920;-74
2022/01/22 06:57:06;;;;;;;;;;;;;;;4.56;100.00;103426.78;5048615;28;20412;-74
2022/01/22 06:59:31;;;;;;;;;;;;;;;4.56;100.00;103422.56;5064659;28;19928;-73
2022/01/22 07:01:57;;;;;;;;;;;;;;;4.58;100.00;103420.16;5048486;28;19924;-74
2022/01/22 07:04:22;;;;;;;;;;;;;;;4.60;100.00;103420.28;5066239;28;19932;-74
2022/01/22 07:06:47;;;;;;;;;;;;;;;4.61;100.00;103424.63;5070165;28;20377;-74
2022/01/22 07:09:13;;;;;;;;;;;;;;;4.64;100.00;103422.38;5073136;28;19939;-73
2022/01/22 07:11:38;;;;;;;;;;;;;;;4.64;100.00;103425.81;5054359;28;19934;-75
2022/01/22 07:14:03;;;;;;;;;;;;;;;4.65;100.00;103430.16;5073273;28;20378;-75
2022/01/22 07:16:29;;;;;;;;;;;;;;;4.65;100.00;103432.72;5034290;28;19924;-74
2022/01/22 07:18:59;;;;;;;;;;;;;;;4.66;100.00;103436.16;5073154;28;19920;-74
2022/01/22 07:21:25;;;;;;;;;;;;;;;4.68;100.00;103443.19;5054731;28;19928;-76
2022/01/22 07:26:16;;;;;;;;;;;;;;;4.69;100.00;103442.44;5066282;28;19952;-77
2022/01/22 07:28:41;;;;;;;;;;;;;;;4.70;100.00;103456.09;5070048;28;19920;-74
2022/01/22 07:31:07;;;;;;;;;;;;;;;4.70;100.00;103451.88;5072568;28;20027;-80
2022/01/22 07:33:34;;;;;;;;;;;;;;;4.71;100.00;103452.78;5039090;28;19920;-76
2022/01/22 07:35:59;;;;;;;;;;;;;;;4.72;100.00;103449.47;5054455;28;19924;-79
2022/01/22 07:38:24;;;;;;;;;;;;;;;4.73;100.00;103456.34;5035116;28;20279;-77
2022/01/22 07:40:50;;;;;;;;;;;;;;;4.74;100.00;103453.97;5073086;28;19979;-78
2022/01/22 07:43:16;;;;;;;;;;;;;;;4.74;100.00;103461.63;5075441;28;19924;-79
2022/01/22 07:45:42;;;;;;;;;;;;;;;4.76;100.00;103462.63;5058934;28;19991;-78
2022/01/22 07:48:07;;;;;;;;;;;;;;;4.78;100.00;103470.41;5072466;28;20333;-78
2022/01/22 07:50:32;;;;;;;;;;;;;;;4.79;100.00;103467.13;5070105;28;19920;-77
2022/01/22 07:52:58;;;;;;;;;;;;;;;4.78;100.00;103468.78;5055158;28;19931;-77
2022/01/22 07:55:23;;;;;;;;;;;;;;;4.80;100.00;103464.72;5068661;28;19967;-76
2022/01/22 07:57:49;;;;;;;;;;;;;;;4.82;100.00;103468.31;5053552;28;20012;-78
2022/01/22 08:00:16;;;;;;;;;;;;;;;4.84;100.00;103471.88;5051118;28;20559;-77
2022/01/22 08:02:41;;;;;;;;;;;;;;;4.90;100.00;103465.56;5082468;28;19928;-80
2022/01/22 08:05:07;;;;;;;;;;;;;;;4.91;100.00;103463.16;5076189;28;20025;-76
2022/01/22 08:07:32;;;;;;;;;;;;;;;4.94;100.00;103457.47;5068357;28;19924;-75
2022/01/22 08:09:58;;;;;;;;;;;;;;;4.97;100.00;103455.16;5072180;28;19943;-76
2022/01/22 08:12:23;;;;;;;;;;;;;;;4.97;100.00;103458.63;5040123;28;20407;-76
2022/01/22 08:14:49;;;;;;;;;;;;;;;4.98;100.00;103459.53;5072006;28;19924;-77
2022/01/22 08:17:14;;;;;;;;;;;;;;;5.01;100.00;103458.16;5053284;28;19939;-77
2022/01/22 08:19:39;;;;;;;;;;;;;;;5.02;100.00;103456.50;5068030;28;19971;-77
2022/01/22 08:22:05;;;;;;;;;;;;;;;5.05;100.00;103454.25;5069804;28;20023;-77
2022/01/22 08:24:30;;;;;;;;;;;;;;;5.08;100.00;103454.50;5070237;28;19958;-77
2022/01/22 08:29:39;;;;;;;;;;;;;;;5.13;100.00;103454.94;5072488;28;19962;-77
2022/01/22 08:37:35;;;;;;;;;;;;;;;5.22;100.00;103449.03;5045707;28;20014;-76
2022/01/22 08:40:01;;;;;;;;;;;;;;;5.25;100.00;103454.38;5049377;28;20358;-77
2022/01/22 08:42:27;;;;;;;;;;;;;;;5.29;100.00;103448.81;5049768;28;19925;-77
2022/01/22 08:44:53;;;;;;;;;;;;;;;5.30;100.00;103449.72;5047285;28;19925;-76
2022/01/22 08:47:18;;;;;;;;;;;;;;;5.33;100.00;103448.31;5050196;28;20346;-76
2022/01/22 08:49:44;;;;;;;;;;;;;;;5.38;100.00;103452.19;5049368;28;19922;-76
2022/01/22 08:52:13;;;;;;;;;;;;;;;5.42;100.00;103460.13;5052263;28;19921;-76
2022/01/22 08:54:38;;;;;;;;;;;;;;;5.48;100.00;103456.47;5045701;28;19939;-77
2022/01/22 08:57:04;;;;;;;;;;;;;;;5.52;100.00;103462.72;5055703;28;19925;-77
2022/01/22 08:59:30;;;;;;;;;;;;;;;5.60;100.00;103466.91;5047255;28;19917;-77
2022/01/22 09:01:55;;;;;;;;;;;;;;;5.64;100.00;103468.94;5029071;28;19974;-77
2022/01/22 09:04:20;;;;;;;;;;;;;;;5.65;100.00;103460.53;5047195;28;20427;-76
2022/01/22 09:06:46;;;;;;;;;;;;;;;5.70;100.00;103472.03;5044867;28;19929;-77
2022/01/22 09:09:12;;;;;;;;;;;;;;;5.72;100.00;103469.66;5048899;28;19954;-77
2022/01/22 09:11:39;;;;;;;;;;;;;;;5.76;100.00;103482.78;5042860;28;20068;-77
2022/01/22 09:14:05;;;;;;;;;;;;;;;5.82;100.00;103485.91;5052849;28;20329;-77
2022/01/22 09:16:30;;;;;;;;;;;;;;;5.82;100.00;103485.91;5051993;28;19920;-78
2022/01/22 09:19:00;;;;;;;;;;;;;;;5.88;100.00;103486.47;5049488;28;20279;-77
2022/01/22 09:21:26;;;;;;;;;;;;;;;5.93;100.00;103480.88;5049603;28;19917;-78
2022/01/22 09:23:51;;;;;;;;;;;;;;;5.97;100.00;103490.63;5049073;28;20428;-77
2022/01/22 09:26:18;;;;;;;;;;;;;;;5.96;100.00;103476.97;5049329;28;20011;-80
2022/01/22 09:28:46;;;;;;;;;;;;;;;5.98;100.00;103485.66;5032765;28;20423;-78
2022/01/22 09:31:12;;;;;;;;;;;;;;;6.01;100.00;103482.47;5047998;28;19943;-80
2022/01/22 09:33:38;;;;;;;;;;;;;;;6.04;100.00;103496.41;5050464;28;19920;-80
2022/01/22 09:36:04;;;;;;;;;;;;;;;6.06;100.00;103497.44;5047542;28;19933;-79
2022/01/22 09:38:29;;;;;;;;;;;;;;;6.08;100.00;103506.13;5049690;28;19976;-80
2022/01/22 09:40:54;;;;;;;;;;;;;;;6.10;100.00;103508.81;5066459;28;19931;-79
2022/01/22 09:43:19;;;;;;;;;;;;;;;6.10;100.00;103511.38;5071133;28;20373;-77
2022/01/22 09:45:45;;;;;;;;;;;;;;;6.10;100.00;103512.28;5043688;28;19929;-80
2022/01/22 09:48:10;;;;;;;;;;;;;;;6.11;100.00;103520.81;5065028;28;19924;-79
2022/01/22 09:50:36;;;;;;;;;;;;;;;6.13;100.00;103519.31;5047945;28;20381;-79
2022/01/22 09:53:01;;;;;;;;;;;;;;;6.13;100.00;103514.22;5068349;28;19923;-78
2022/01/22 09:55:27;;;;;;;;;;;;;;;6.13;100.00;103519.31;5063995;28;19939;-78
2022/01/22 09:57:54;;;;;;;;;;;;;;;6.16;100.00;103514.47;5051148;28;20000;-78
2022/01/22 10:00:20;;;;;;;;;;;;;;;6.15;100.00;103516.13;5068545;28;19920;-79
2022/01/22 10:02:47;;;;;;;;;;;;;;;6.21;100.00;103518.34;5074590;28;20369;-79
2022/01/22 10:05:45;;;;;;;;;;;;;;;6.26;100.00;103519.63;5065566;28;19916;-79
2022/01/22 10:08:20;;;;;;;;;;;;;;;6.28;100.00;103524.88;5014833;28;19943;-79
2022/01/22 10:10:47;;;;;;;;;;;;;;;6.26;100.00;103522.19;5063707;28;19938;-79
2022/01/22 10:13:12;;;;;;;;;;;;;;;6.26;100.00;103517.09;5061821;28;19967;-77
2022/01/22 10:15:39;;;;;;;;;;;;;;;6.25;100.00;103514.38;5047518;28;20225;-79
2022/01/22 10:18:05;;;;;;;;;;;;;;;6.21;100.00;103525.09;5048357;28;19924;-76
2022/01/22 10:20:35;;;;;;;;;;;;;;;6.22;100.00;103532.91;5045414;28;20455;-79
2022/01/22 10:23:08;;;;;;;;;;;;;;;6.22;100.00;103524.34;5039186;28;20024;-77
2022/01/22 10:25:36;;;;;;;;;;;;;;;6.21;100.00;103527.66;5058810;28;19967;-76
2022/01/22 10:28:01;;;;;;;;;;;;;;;6.22;100.00;103530.34;5063421;28;19925;-76
2022/01/22 10:30:35;;;;;;;;;;;;;;;6.18;100.00;103520.59;5044569;28;19990;-76
2022/01/22 10:33:17;;;;;;;;;;;;;;;6.20;100.00;103520.75;5059598;28;20281;-77
2022/01/22 10:35:42;;;;;;;;;;;;;;;6.18;100.00;103524.03;5053068;28;20457;-77
2022/01/22 10:38:08;;;;;;;;;;;;;;;6.19;100.00;103517.31;5056475;28;20019;-76
2022/01/22 10:40:37;;;;;;;;;;;;;;;6.20;100.00;103528.44;5059622;28;19920;-76
2022/01/22 10:43:21;;;;;;;;;;;;;;;6.20;100.00;103525.88;5044586;28;19920;-80
2022/01/22 10:46:00;;;;;;;;;;;;;;;6.23;100.00;103524.47;5072503;28;20357;-77
2022/01/22 10:48:25;;;;;;;;;;;;;;;6.22;100.00;103527.78;5044066;28;20395;-77
2022/01/22 10:51:03;;;;;;;;;;;;;;;6.20;100.00;103531.88;5058846;28;19943;-77
2022/01/22 10:53:43;;;;;;;;;;;;;;;6.22;100.00;103530.34;5063114;28;20018;-77
2022/01/22 10:56:12;;;;;;;;;;;;;;;6.21;100.00;103532.78;5064068;28;20404;-78
2022/01/22 10:58:52;;;;;;;;;;;;;;;6.21;100.00;103528.56;5074675;28;19939;-77
2022/01/22 11:01:17;;;;;;;;;;;;;;;6.22;100.00;103532.00;5064659;28;19924;-77
2022/01/22 11:03:42;;;;;;;;;;;;;;;6.25;100.00;103534.81;5030994;28;20377;-75
2022/01/22 11:06:23;;;;;;;;;;;;;;;6.30;100.00;103534.44;5044863;28;20582;-76
2022/01/22 11:08:48;;;;;;;;;;;;;;;6.30;100.00;103529.34;5063268;28;19927;-76
2022/01/22 11:11:13;;;;;;;;;;;;;;;6.33;100.00;103529.63;5063886;28;19930;-76
2022/01/22 11:13:38;;;;;;;;;;;;;;;6.32;100.00;103521.84;5049009;28;19947;-76
2022/01/22 11:16:04;;;;;;;;;;;;;;;6.30;100.00;103514.00;5066994;28;19955;-76
2022/01/22 11:18:29;;;;;;;;;;;;;;;6.28;100.00;103515.56;5072229;28;19939;-76
2022/01/22 11:20:55;;;;;;;;;;;;;;;6.28;100.00;103504.44;5066595;28;19921;-76
2022/01/22 11:23:21;;;;;;;;;;;;;;;6.30;100.00;103508.91;5056735;28;19936;-75
2022/01/22 11:25:49;;;;;;;;;;;;;;;6.30;100.00;103508.00;5061316;28;20360;-75
2022/01/22 11:28:15;;;;;;;;;;;;;;;6.29;100.00;103509.66;5064647;28;20407;-76
2022/01/22 11:30:43;;;;;;;;;;;;;;;6.24;100.00;103505.81;5031530;28;19920;-77
2022/01/22 11:33:10;;;;;;;;;;;;;;;6.29;100.00;103512.22;5066877;28;19924;-76
2022/01/22 11:35:46;;;;;;;;;;;;;;;6.27;100.00;103507.75;5077600;28;19920;-76
2022/01/22 11:38:32;;;;;;;;;;;;;;;6.26;100.00;103501.75;5072494;28;20525;-76
2022/01/22 11:41:16;;;;;;;;;;;;;;;6.26;100.00;103499.19;5074798;28;19921;-76
2022/01/22 11:43:50;;;;;;;;;;;;;;;6.31;100.00;103509.78;5071632;28;19923;-79
2022/01/22 11:46:29;;;;;;;;;;;;;;;6.38;100.00;103518.16;5042576;28;19967;-76
2022/01/22 11:49:15;;;;;;;;;;;;;;;6.45;100.00;103510.25;5046927;28;19917;-76
2022/01/22 11:51:41;;;;;;;;;;;;;;;6.54;100.00;103516.91;5066225;28;19916;-77
2022/01/22 11:54:07;;;;;;;;;;;;;;;6.55;100.00;103514.50;5064287;28;20101;-77
2022/01/22 11:56:49;;;;;;;;;;;;;;;6.56;100.00;103515.41;5049043;28;20004;-77
2022/01/22 11:59:16;;;;;;;;;;;;;;;6.57;100.00;103512.09;5046871;28;20389;-76
2022/01/22 12:01:51;;;;;;;;;;;;;;;6.56;100.00;103513.75;5066983;28;20059;-78
2022/01/22 12:04:18;;;;;;;;;;;;;;;6.54;100.00;103517.81;5066799;28;20404;-76
2022/01/22 12:07:02;;;;;;;;;;;;;;;6.55;100.00;103501.72;5078838;28;20381;-77
2022/01/22 12:09:42;;;;;;;;;;;;;;;6.55;100.00;103503.38;5054316;28;19928;-76
2022/01/22 12:15:07;;;;;;;;;;;;;;;6.53;100.00;103497.22;5065041;28;19924;-77
2022/01/22 12:17:59;;;;;;;;;;;;;;;6.53;100.00;103497.22;5069337;28;19920;-75
2022/01/22 12:21:30;;;;;;;;;;;;;;;6.53;100.00;103498.13;5050059;28;19924;-77
2022/01/22 12:23:17;;;;;;;;;;;;;;;6.53;100.00;103487.91;5068043;28;19920;-75
2022/01/22 12:25:42;;;;;;;;;;;;;;;6.53;100.00;103499.78;5061959;28;19958;-77
2022/01/22 12:28:08;;;;;;;;;;;;;;;6.52;100.00;103508.22;5051424;28;19958;-75
2022/01/22 12:30:36;;;;;;;;;;;;;;;6.50;100.00;103503.00;5075845;28;20305;-75
2022/01/22 12:33:02;;;;;;;;;;;;;;;6.50;100.00;103512.31;5070327;28;19987;-78
2022/01/22 12:35:35;;;;;;;;;;;;;;;6.47;100.00;103502.72;5080834;28;21504;-77
2022/01/22 12:38:29;;;;;;;;;;;;;;;6.45;100.00;103505.13;5065783;28;19920;-77
2022/01/22 12:41:13;;;;;;;;;;;;;;;6.48;100.00;103503.59;5066258;28;19916;-76
2022/01/22 12:43:39;;;;;;;;;;;;;;;6.47;100.00;103507.81;5069348;28;19916;-75
2022/01/22 12:46:04;;;;;;;;;;;;;;;6.51;100.00;103509.88;5066188;28;19946;-74
2022/01/22 12:48:35;;;;;;;;;;;;;;;6.50;100.00;103509.75;5051770;28;19967;-75
2022/01/22 12:51:06;;;;;;;;;;;;;;;6.46;100.00;103513.69;5052636;28;19920;-75
2022/01/22 12:53:32;;;;;;;;;;;;;;;6.48;100.00;103507.06;5064840;28;20269;-74
2022/01/22 12:58:24;;;;;;;;;;;;;;;6.41;100.00;103510.75;5078987;28;19974;-75
2022/01/22 13:00:52;;;;;;;;;;;;;;;6.40;100.00;103514.06;5068925;28;19921;-74
2022/01/22 13:03:36;;;;;;;;;;;;;;;6.38;100.00;103513.03;5061716;28;20039;-74
2022/01/22 13:06:02;;;;;;;;;;;;;;;6.42;100.00;103514.19;5065481;28;20369;-75
2022/01/22 13:08:29;;;;;;;;;;;;;;;6.42;100.00;103509.97;5052610;28;19920;-75
2022/01/22 13:10:55;;;;;;;;;;;;;;;6.47;100.00;103512.03;5066665;28;19932;-76
2022/01/22 13:13:21;;;;;;;;;;;;;;;6.43;100.00;103504.13;5066719;28;20381;-74
2022/01/22 13:15:46;;;;;;;;;;;;;;;6.43;100.00;103504.13;5052775;28;19940;-75
2022/01/22 13:18:12;;;;;;;;;;;;;;;6.47;100.00;103522.25;5065038;28;19928;-75
2022/01/22 13:20:37;;;;;;;;;;;;;;;6.45;100.00;103510.25;5052682;28;19925;-75
2022/01/22 13:23:16;;;;;;;;;;;;;;;6.45;100.00;103510.25;5061082;28;19920;-75
2022/01/22 13:25:41;;;;;;;;;;;;;;;6.50;100.00;103509.75;5065485;28;20404;-73
2022/01/22 13:28:10;;;;;;;;;;;;;;;6.48;100.00;103512.16;5043041;28;19974;-75
2022/01/22 13:30:42;;;;;;;;;;;;;;;6.48;100.00;103517.28;5064692;28;19921;-75
2022/01/22 13:33:18;;;;;;;;;;;;;;;6.47;100.00;103510.38;5054257;28;20034;-75
2022/01/22 13:36:12;;;;;;;;;;;;;;;6.45;100.00;103505.13;5050363;28;20316;-75
2022/01/22 13:49:40;;;;;;;;;;;;;;;6.45;100.00;103505.13;5051082;28;19932;-75
2022/01/22 13:52:07;;;;;;;;;;;;;;;6.44;100.00;103505.91;5062014;28;20442;-75
2022/01/22 13:54:39;;;;;;;;;;;;;;;6.44;100.00;103508.47;5060398;28;19917;-75
2022/01/22 13:57:08;;;;;;;;;;;;;;;6.43;100.00;103501.56;5059500;28;19947;-76
2022/01/22 13:59:37;;;;;;;;;;;;;;;6.44;100.00;103505.00;5050028;28;19921;-76
2022/01/22 14:05:03;;;;;;;;;;;;;;;6.50;100.00;103507.22;5058394;28;19963;-76
2022/01/22 14:07:32;;;;;;;;;;;;;;;6.45;100.00;103510.25;5065837;28;20362;-76
2022/01/22 14:09:57;;;;;;;;;;;;;;;6.45;99.88;103514.47;5049951;28;19920;-76
2022/01/22 14:12:41;;;;;;;;;;;;;;;6.49;100.00;103508.84;5052418;28;19973;-76
2022/01/22 14:15:15;;;;;;;;;;;;;;;6.47;100.00;103510.38;5050316;28;19939;-76
2022/01/22 14:17:53;;;;;;;;;;;;;;;6.47;100.00;103506.94;5066460;28;19917;-75
2022/01/22 14:20:23;;;;;;;;;;;;;;;6.45;100.00;103500.03;5061154;28;19942;-76
2022/01/22 14:23:03;;;;;;;;;;;;;;;6.46;100.00;103508.59;5067180;28;20369;-77
2022/01/22 14:25:29;;;;;;;;;;;;;;;6.43;100.00;103505.75;5048282;28;20411;-76
2022/01/22 14:27:56;;;;;;;;;;;;;;;6.39;100.00;103514.84;5057622;28;19916;-76
2022/01/22 14:30:41;;;;;;;;;;;;;;;6.40;100.00;103518.28;5042404;28;19917;-76
2022/01/22 14:33:07;;;;;;;;;;;;;;;6.35;100.00;103520.44;5055425;28;20469;-75
2022/01/22 14:35:33;;;;;;;;;;;;;;;6.36;100.00;103517.09;5056373;28;20917;-74
2022/01/22 14:38:17;;;;;;;;;;;;;;;6.48;100.00;103511.28;5051729;28;20356;-75
2022/01/22 14:46:10;;;;;;;;;;;;;;;6.26;100.00;103509.41;5047474;28;19928;-74
2022/01/22 14:48:36;;;;;;;;;;;;;;;6.24;100.00;103504.91;5030346;28;20117;-75
2022/01/22 14:51:01;;;;;;;;;;;;;;;6.22;100.00;103503.91;5070242;28;20018;-75